sensor_id;sensor_type;location;lat;lon;timestamp;temperature;humidity
65985;HTU21D;52748;51.112;5.880;2022-07-17T00:01:53;17.94;60.74
65985;HTU21D;52748;51.112;5.880;2022-07-17T00:04:19;17.91;60.89
65985;HTU21D;52748;51.112;5.880;2022-07-17T00:06:45;17.90;60.76
65985;HTU21D;52748;51.112;5.880;2022-07-17T00:09:14;17.89;60.98
65985;HTU21D;52748;51.112;5.880;2022-07-17T00:11:39;17.87;61.00
65985;HTU21D;52748;51.112;5.880;2022-07-17T00:14:05;17.84;61.28
65985;HTU21D;52748;51.112;5.880;2022-07-17T00:16:31;17.80;61.31
65985;HTU21D;52748;51.112;5.880;2022-07-17T00:18:57;17.73;61.40
65985;HTU21D;52748;51.112;5.880;2022-07-17T00:21:22;17.67;61.32
65985;HTU21D;52748;51.112;5.880;2022-07-17T00:23:48;17.64;61.20
65985;HTU21D;52748;51.112;5.880;2022-07-17T00:26:14;17.60;61.12
65985;HTU21D;52748;51.112;5.880;2022-07-17T00:28:40;17.59;61.42
65985;HTU21D;52748;51.112;5.880;2022-07-17T00:31:06;17.54;61.78
65985;HTU21D;52748;51.112;5.880;2022-07-17T00:33:32;17.47;62.12
65985;HTU21D;52748;51.112;5.880;2022-07-17T00:35:58;17.40;62.47
65985;HTU21D;52748;51.112;5.880;2022-07-17T00:38:24;17.33;62.70
65985;HTU21D;52748;51.112;5.880;2022-07-17T00:40:53;17.25;62.99
65985;HTU21D;52748;51.112;5.880;2022-07-17T00:43:19;17.21;63.40
65985;HTU21D;52748;51.112;5.880;2022-07-17T00:45:44;17.13;63.67
65985;HTU21D;52748;51.112;5.880;2022-07-17T00:48:10;17.07;63.90
65985;HTU21D;52748;51.112;5.880;2022-07-17T00:50:39;17.00;64.05
65985;HTU21D;52748;51.112;5.880;2022-07-17T00:53:07;16.92;64.40
65985;HTU21D;52748;51.112;5.880;2022-07-17T00:55:33;16.88;64.83
65985;HTU21D;52748;51.112;5.880;2022-07-17T00:58:03;16.80;64.99
65985;HTU21D;52748;51.112;5.880;2022-07-17T01:00:30;16.75;65.11
65985;HTU21D;52748;51.112;5.880;2022-07-17T01:02:56;16.70;65.14
65985;HTU21D;52748;51.112;5.880;2022-07-17T01:05:23;16.63;65.25
65985;HTU21D;52748;51.112;5.880;2022-07-17T01:07:50;16.61;65.45
65985;HTU21D;52748;51.112;5.880;2022-07-17T01:10:17;16.58;65.54
65985;HTU21D;52748;51.112;5.880;2022-07-17T01:12:46;16.51;65.66
65985;HTU21D;52748;51.112;5.880;2022-07-17T01:15:13;16.46;65.99
65985;HTU21D;52748;51.112;5.880;2022-07-17T01:17:39;16.40;66.43
65985;HTU21D;52748;51.112;5.880;2022-07-17T01:20:08;16.33;66.72
65985;HTU21D;52748;51.112;5.880;2022-07-17T01:22:54;16.27;67.07
65985;HTU21D;52748;51.112;5.880;2022-07-17T01:25:22;16.20;67.34
65985;HTU21D;52748;51.112;5.880;2022-07-17T01:27:48;16.12;67.56
65985;HTU21D;52748;51.112;5.880;2022-07-17T01:30:14;16.07;67.69
65985;HTU21D;52748;51.112;5.880;2022-07-17T01:32:41;16.02;67.80
65985;HTU21D;52748;51.112;5.880;2022-07-17T01:35:10;15.98;67.95
65985;HTU21D;52748;51.112;5.880;2022-07-17T01:37:37;15.92;68.19
65985;HTU21D;52748;51.112;5.880;2022-07-17T01:40:04;15.88;68.60
65985;HTU21D;52748;51.112;5.880;2022-07-17T01:42:30;15.83;68.89
65985;HTU21D;52748;51.112;5.880;2022-07-17T01:44:56;15.80;69.16
65985;HTU21D;52748;51.112;5.880;2022-07-17T01:47:23;15.75;69.32
65985;HTU21D;52748;51.112;5.880;2022-07-17T01:49:55;15.75;69.58
65985;HTU21D;52748;51.112;5.880;2022-07-17T01:52:23;15.70;69.70
65985;HTU21D;52748;51.112;5.880;2022-07-17T01:54:50;15.68;69.87
65985;HTU21D;52748;51.112;5.880;2022-07-17T01:57:16;15.63;70.03
65985;HTU21D;52748;51.112;5.880;2022-07-17T01:59:42;15.58;70.09
65985;HTU21D;52748;51.112;5.880;2022-07-17T02:02:08;15.54;70.20
65985;HTU21D;52748;51.112;5.880;2022-07-17T02:04:36;15.48;70.29
65985;HTU21D;52748;51.112;5.880;2022-07-17T02:07:03;15.46;70.39
65985;HTU21D;52748;51.112;5.880;2022-07-17T02:09:30;15.42;70.41
65985;HTU21D;52748;51.112;5.880;2022-07-17T02:11:56;15.40;70.53
65985;HTU21D;52748;51.112;5.880;2022-07-17T02:14:23;15.37;70.65
65985;HTU21D;52748;51.112;5.880;2022-07-17T02:16:49;15.32;70.77
65985;HTU21D;52748;51.112;5.880;2022-07-17T02:19:15;15.28;71.03
65985;HTU21D;52748;51.112;5.880;2022-07-17T02:21:41;15.27;71.22
65985;HTU21D;52748;51.112;5.880;2022-07-17T02:24:07;15.26;71.32
65985;HTU21D;52748;51.112;5.880;2022-07-17T02:26:33;15.24;71.29
65985;HTU21D;52748;51.112;5.880;2022-07-17T02:28:59;15.23;71.38
65985;HTU21D;52748;51.112;5.880;2022-07-17T02:31:25;15.22;71.55
65985;HTU21D;52748;51.112;5.880;2022-07-17T02:33:51;15.21;71.69
65985;HTU21D;52748;51.112;5.880;2022-07-17T02:36:17;15.22;71.77
65985;HTU21D;52748;51.112;5.880;2022-07-17T02:38:43;15.19;71.80
65985;HTU21D;52748;51.112;5.880;2022-07-17T02:41:08;15.17;71.87
65985;HTU21D;52748;51.112;5.880;2022-07-17T02:43:34;15.16;71.92
65985;HTU21D;52748;51.112;5.880;2022-07-17T02:46:01;15.13;71.90
65985;HTU21D;52748;51.112;5.880;2022-07-17T02:48:27;15.12;72.00
65985;HTU21D;52748;51.112;5.880;2022-07-17T02:50:53;15.10;72.03
65985;HTU21D;52748;51.112;5.880;2022-07-17T02:53:19;15.08;71.97
65985;HTU21D;52748;51.112;5.880;2022-07-17T02:55:44;15.04;72.05
65985;HTU21D;52748;51.112;5.880;2022-07-17T02:58:11;15.01;72.29
65985;HTU21D;52748;51.112;5.880;2022-07-17T03:00:37;14.99;72.40
65985;HTU21D;52748;51.112;5.880;2022-07-17T03:03:03;14.97;72.53
65985;HTU21D;52748;51.112;5.880;2022-07-17T03:05:29;14.96;72.51
65985;HTU21D;52748;51.112;5.880;2022-07-17T03:07:55;14.93;72.60
65985;HTU21D;52748;51.112;5.880;2022-07-17T03:10:21;14.89;72.72
65985;HTU21D;52748;51.112;5.880;2022-07-17T03:12:46;14.86;72.77
65985;HTU21D;52748;51.112;5.880;2022-07-17T03:15:12;14.85;72.72
65985;HTU21D;52748;51.112;5.880;2022-07-17T03:17:39;14.85;72.80
65985;HTU21D;52748;51.112;5.880;2022-07-17T03:20:06;14.83;72.90
65985;HTU21D;52748;51.112;5.880;2022-07-17T03:22:32;14.82;72.72
65985;HTU21D;52748;51.112;5.880;2022-07-17T03:24:58;14.79;72.76
65985;HTU21D;52748;51.112;5.880;2022-07-17T03:27:24;14.75;72.74
65985;HTU21D;52748;51.112;5.880;2022-07-17T03:29:49;14.75;72.73
65985;HTU21D;52748;51.112;5.880;2022-07-17T03:32:15;14.73;72.79
65985;HTU21D;52748;51.112;5.880;2022-07-17T03:34:41;14.71;72.88
65985;HTU21D;52748;51.112;5.880;2022-07-17T03:37:07;14.68;73.22
65985;HTU21D;52748;51.112;5.880;2022-07-17T03:39:33;14.66;73.43
65985;HTU21D;52748;51.112;5.880;2022-07-17T03:41:58;14.62;73.39
65985;HTU21D;52748;51.112;5.880;2022-07-17T03:44:24;14.57;73.48
65985;HTU21D;52748;51.112;5.880;2022-07-17T03:46:50;14.55;73.70
65985;HTU21D;52748;51.112;5.880;2022-07-17T03:49:16;14.55;73.62
65985;HTU21D;52748;51.112;5.880;2022-07-17T03:51:42;14.52;73.82
65985;HTU21D;52748;51.112;5.880;2022-07-17T03:54:08;14.52;73.99
65985;HTU21D;52748;51.112;5.880;2022-07-17T03:56:33;14.51;74.02
65985;HTU21D;52748;51.112;5.880;2022-07-17T03:58:59;14.50;74.11
65985;HTU21D;52748;51.112;5.880;2022-07-17T04:01:25;14.51;74.18
65985;HTU21D;52748;51.112;5.880;2022-07-17T04:03:51;14.51;74.03
65985;HTU21D;52748;51.112;5.880;2022-07-17T04:06:17;14.52;73.90
65985;HTU21D;52748;51.112;5.880;2022-07-17T04:08:42;14.56;73.82
65985;HTU21D;52748;51.112;5.880;2022-07-17T04:11:08;14.56;73.83
65985;HTU21D;52748;51.112;5.880;2022-07-17T04:13:34;14.55;73.81
65985;HTU21D;52748;51.112;5.880;2022-07-17T04:16:00;14.57;73.65
65985;HTU21D;52748;51.112;5.880;2022-07-17T04:18:29;14.57;73.38
65985;HTU21D;52748;51.112;5.880;2022-07-17T04:21:01;14.56;73.41
65985;HTU21D;52748;51.112;5.880;2022-07-17T04:23:28;14.56;73.38
65985;HTU21D;52748;51.112;5.880;2022-07-17T04:25:54;14.55;73.28
65985;HTU21D;52748;51.112;5.880;2022-07-17T04:28:20;14.55;73.43
65985;HTU21D;52748;51.112;5.880;2022-07-17T04:30:47;14.54;73.59
65985;HTU21D;52748;51.112;5.880;2022-07-17T04:33:13;14.57;73.47
65985;HTU21D;52748;51.112;5.880;2022-07-17T04:35:39;14.59;73.52
65985;HTU21D;52748;51.112;5.880;2022-07-17T04:38:07;14.62;73.61
65985;HTU21D;52748;51.112;5.880;2022-07-17T04:40:35;14.63;73.82
65985;HTU21D;52748;51.112;5.880;2022-07-17T04:43:01;14.68;73.98
65985;HTU21D;52748;51.112;5.880;2022-07-17T04:45:27;14.73;74.04
65985;HTU21D;52748;51.112;5.880;2022-07-17T04:47:53;14.79;73.89
65985;HTU21D;52748;51.112;5.880;2022-07-17T04:50:20;14.81;73.80
65985;HTU21D;52748;51.112;5.880;2022-07-17T04:52:46;14.85;73.86
65985;HTU21D;52748;51.112;5.880;2022-07-17T04:55:12;14.92;73.79
65985;HTU21D;52748;51.112;5.880;2022-07-17T04:57:38;14.96;73.99
65985;HTU21D;52748;51.112;5.880;2022-07-17T05:00:06;15.02;73.95
65985;HTU21D;52748;51.112;5.880;2022-07-17T05:02:33;15.10;74.01
65985;HTU21D;52748;51.112;5.880;2022-07-17T05:04:59;15.19;73.83
65985;HTU21D;52748;51.112;5.880;2022-07-17T05:07:25;15.31;73.77
65985;HTU21D;52748;51.112;5.880;2022-07-17T05:09:50;15.41;73.88
65985;HTU21D;52748;51.112;5.880;2022-07-17T05:12:16;15.47;73.52
65985;HTU21D;52748;51.112;5.880;2022-07-17T05:14:42;15.55;73.32
65985;HTU21D;52748;51.112;5.880;2022-07-17T05:17:08;15.66;73.19
65985;HTU21D;52748;51.112;5.880;2022-07-17T05:19:34;15.75;73.29
65985;HTU21D;52748;51.112;5.880;2022-07-17T05:22:01;15.83;73.26
65985;HTU21D;52748;51.112;5.880;2022-07-17T05:24:27;15.89;73.23
65985;HTU21D;52748;51.112;5.880;2022-07-17T05:26:53;15.96;73.19
65985;HTU21D;52748;51.112;5.880;2022-07-17T05:29:19;16.02;73.22
65985;HTU21D;52748;51.112;5.880;2022-07-17T05:31:45;16.06;73.48
65985;HTU21D;52748;51.112;5.880;2022-07-17T05:34:12;16.12;73.44
65985;HTU21D;52748;51.112;5.880;2022-07-17T05:36:37;16.19;72.83
65985;HTU21D;52748;51.112;5.880;2022-07-17T05:39:03;16.28;72.83
65985;HTU21D;52748;51.112;5.880;2022-07-17T05:41:29;16.36;72.96
65985;HTU21D;52748;51.112;5.880;2022-07-17T05:43:55;16.44;72.70
65985;HTU21D;52748;51.112;5.880;2022-07-17T05:46:21;16.54;71.29
65985;HTU21D;52748;51.112;5.880;2022-07-17T05:48:46;16.71;70.19
65985;HTU21D;52748;51.112;5.880;2022-07-17T05:51:12;16.77;70.62
65985;HTU21D;52748;51.112;5.880;2022-07-17T05:53:38;16.82;70.89
65985;HTU21D;52748;51.112;5.880;2022-07-17T05:56:04;16.88;70.79
65985;HTU21D;52748;51.112;5.880;2022-07-17T05:58:29;16.98;70.15
65985;HTU21D;52748;51.112;5.880;2022-07-17T06:00:55;17.05;69.94
65985;HTU21D;52748;51.112;5.880;2022-07-17T06:03:21;17.19;69.46
65985;HTU21D;52748;51.112;5.880;2022-07-17T06:05:47;17.30;68.35
65985;HTU21D;52748;51.112;5.880;2022-07-17T06:08:13;17.41;67.72
65985;HTU21D;52748;51.112;5.880;2022-07-17T06:10:38;17.58;66.94
65985;HTU21D;52748;51.112;5.880;2022-07-17T06:13:05;17.85;66.85
65985;HTU21D;52748;51.112;5.880;2022-07-17T06:15:30;18.29;65.88
65985;HTU21D;52748;51.112;5.880;2022-07-17T06:18:01;19.03;64.85
65985;HTU21D;52748;51.112;5.880;2022-07-17T06:20:27;19.83;63.05
65985;HTU21D;52748;51.112;5.880;2022-07-17T06:22:53;20.70;60.51
65985;HTU21D;52748;51.112;5.880;2022-07-17T06:25:19;21.51;57.37
65985;HTU21D;52748;51.112;5.880;2022-07-17T06:27:45;22.28;54.71
65985;HTU21D;52748;51.112;5.880;2022-07-17T06:30:15;22.97;52.05
65985;HTU21D;52748;51.112;5.880;2022-07-17T06:32:42;23.58;50.18
65985;HTU21D;52748;51.112;5.880;2022-07-17T06:35:09;24.19;47.98
65985;HTU21D;52748;51.112;5.880;2022-07-17T06:37:35;24.65;46.69
65985;HTU21D;52748;51.112;5.880;2022-07-17T06:40:03;25.07;45.55
65985;HTU21D;52748;51.112;5.880;2022-07-17T06:42:29;25.42;44.54
65985;HTU21D;52748;51.112;5.880;2022-07-17T06:44:54;25.82;43.26
65985;HTU21D;52748;51.112;5.880;2022-07-17T06:47:20;26.18;42.48
65985;HTU21D;52748;51.112;5.880;2022-07-17T06:49:46;26.48;41.41
65985;HTU21D;52748;51.112;5.880;2022-07-17T06:52:15;26.82;40.39
65985;HTU21D;52748;51.112;5.880;2022-07-17T06:54:40;27.13;38.98
65985;HTU21D;52748;51.112;5.880;2022-07-17T06:57:06;27.39;38.39
65985;HTU21D;52748;51.112;5.880;2022-07-17T06:59:33;27.57;37.48
65985;HTU21D;52748;51.112;5.880;2022-07-17T07:01:59;27.69;37.27
65985;HTU21D;52748;51.112;5.880;2022-07-17T07:04:25;27.82;37.57
65985;HTU21D;52748;51.112;5.880;2022-07-17T07:06:51;28.00;37.42
65985;HTU21D;52748;51.112;5.880;2022-07-17T07:09:17;28.24;36.73
65985;HTU21D;52748;51.112;5.880;2022-07-17T07:11:43;28.52;36.33
65985;HTU21D;52748;51.112;5.880;2022-07-17T07:14:08;28.69;35.93
65985;HTU21D;52748;51.112;5.880;2022-07-17T07:16:35;28.78;35.27
65985;HTU21D;52748;51.112;5.880;2022-07-17T07:19:01;28.35;35.77
65985;HTU21D;52748;51.112;5.880;2022-07-17T07:21:26;28.24;36.53
65985;HTU21D;52748;51.112;5.880;2022-07-17T07:23:53;28.44;35.89
65985;HTU21D;52748;51.112;5.880;2022-07-17T07:26:19;28.47;35.43
65985;HTU21D;52748;51.112;5.880;2022-07-17T07:28:45;28.39;35.53
65985;HTU21D;52748;51.112;5.880;2022-07-17T07:31:11;28.56;35.56
65985;HTU21D;52748;51.112;5.880;2022-07-17T07:33:38;28.82;34.06
65985;HTU21D;52748;51.112;5.880;2022-07-17T07:36:04;28.68;34.28
65985;HTU21D;52748;51.112;5.880;2022-07-17T07:38:30;28.40;34.49
65985;HTU21D;52748;51.112;5.880;2022-07-17T07:40:56;28.31;34.77
65985;HTU21D;52748;51.112;5.880;2022-07-17T07:43:21;28.70;34.49
65985;HTU21D;52748;51.112;5.880;2022-07-17T07:45:47;28.77;34.57
65985;HTU21D;52748;51.112;5.880;2022-07-17T07:48:13;28.84;34.55
65985;HTU21D;52748;51.112;5.880;2022-07-17T07:50:40;28.67;34.16
65985;HTU21D;52748;51.112;5.880;2022-07-17T07:53:06;28.53;34.48
65985;HTU21D;52748;51.112;5.880;2022-07-17T07:55:32;28.59;34.34
65985;HTU21D;52748;51.112;5.880;2022-07-17T07:58:02;28.64;34.91
65985;HTU21D;52748;51.112;5.880;2022-07-17T08:00:28;28.43;35.54
65985;HTU21D;52748;51.112;5.880;2022-07-17T08:02:54;28.32;36.22
65985;HTU21D;52748;51.112;5.880;2022-07-17T08:05:20;28.55;36.09
65985;HTU21D;52748;51.112;5.880;2022-07-17T08:07:46;28.88;35.45
65985;HTU21D;52748;51.112;5.880;2022-07-17T08:10:12;29.13;34.89
65985;HTU21D;52748;51.112;5.880;2022-07-17T08:12:37;29.35;34.33
65985;HTU21D;52748;51.112;5.880;2022-07-17T08:15:04;29.62;33.04
65985;HTU21D;52748;51.112;5.880;2022-07-17T08:17:31;29.78;32.06
65985;HTU21D;52748;51.112;5.880;2022-07-17T08:19:56;29.81;32.44
65985;HTU21D;52748;51.112;5.880;2022-07-17T08:22:22;29.81;32.45
65985;HTU21D;52748;51.112;5.880;2022-07-17T08:24:48;29.90;31.68
65985;HTU21D;52748;51.112;5.880;2022-07-17T08:27:14;29.85;31.25
65985;HTU21D;52748;51.112;5.880;2022-07-17T08:29:40;29.63;31.76
65985;HTU21D;52748;51.112;5.880;2022-07-17T08:32:06;29.52;31.99
65985;HTU21D;52748;51.112;5.880;2022-07-17T08:34:32;29.65;30.96
65985;HTU21D;52748;51.112;5.880;2022-07-17T08:36:57;29.64;31.64
65985;HTU21D;52748;51.112;5.880;2022-07-17T08:39:23;29.64;31.29
65985;HTU21D;52748;51.112;5.880;2022-07-17T08:41:49;29.18;31.20
65985;HTU21D;52748;51.112;5.880;2022-07-17T08:44:15;28.39;32.41
65985;HTU21D;52748;51.112;5.880;2022-07-17T08:46:41;27.98;33.44
65985;HTU21D;52748;51.112;5.880;2022-07-17T08:49:07;27.85;34.35
65985;HTU21D;52748;51.112;5.880;2022-07-17T08:51:34;27.85;34.07
65985;HTU21D;52748;51.112;5.880;2022-07-17T08:54:00;27.71;34.73
65985;HTU21D;52748;51.112;5.880;2022-07-17T08:56:27;27.75;34.99
65985;HTU21D;52748;51.112;5.880;2022-07-17T08:58:54;27.71;34.90
65985;HTU21D;52748;51.112;5.880;2022-07-17T09:01:21;27.66;35.27
65985;HTU21D;52748;51.112;5.880;2022-07-17T09:03:59;27.58;35.05
65985;HTU21D;52748;51.112;5.880;2022-07-17T09:06:36;27.47;35.76
65985;HTU21D;52748;51.112;5.880;2022-07-17T09:09:13;27.28;35.98
65985;HTU21D;52748;51.112;5.880;2022-07-17T09:11:49;27.07;36.13
65985;HTU21D;52748;51.112;5.880;2022-07-17T09:14:21;26.94;35.92
65985;HTU21D;52748;51.112;5.880;2022-07-17T09:16:58;26.92;36.62
65985;HTU21D;52748;51.112;5.880;2022-07-17T09:19:46;26.94;35.90
65985;HTU21D;52748;51.112;5.880;2022-07-17T09:22:13;26.93;36.24
65985;HTU21D;52748;51.112;5.880;2022-07-17T09:24:55;26.99;36.30
65985;HTU21D;52748;51.112;5.880;2022-07-17T09:32:22;26.94;36.47
65985;HTU21D;52748;51.112;5.880;2022-07-17T09:34:51;26.94;36.24
65985;HTU21D;52748;51.112;5.880;2022-07-17T09:37:19;27.07;36.47
65985;HTU21D;52748;51.112;5.880;2022-07-17T09:39:46;27.05;35.66
65985;HTU21D;52748;51.112;5.880;2022-07-17T09:42:29;27.01;35.99
65985;HTU21D;52748;51.112;5.880;2022-07-17T09:45:07;27.24;35.19
65985;HTU21D;52748;51.112;5.880;2022-07-17T09:47:37;27.22;34.95
65985;HTU21D;52748;51.112;5.880;2022-07-17T09:50:05;27.21;34.50
65985;HTU21D;52748;51.112;5.880;2022-07-17T09:52:34;27.16;34.27
65985;HTU21D;52748;51.112;5.880;2022-07-17T09:55:02;26.86;34.37
65985;HTU21D;52748;51.112;5.880;2022-07-17T09:57:31;26.73;35.00
65985;HTU21D;52748;51.112;5.880;2022-07-17T10:00:01;26.58;34.95
65985;HTU21D;52748;51.112;5.880;2022-07-17T10:02:44;26.57;35.03
65985;HTU21D;52748;51.112;5.880;2022-07-17T10:05:12;26.72;35.59
65985;HTU21D;52748;51.112;5.880;2022-07-17T10:07:47;26.93;35.51
65985;HTU21D;52748;51.112;5.880;2022-07-17T10:10:15;27.09;35.30
65985;HTU21D;52748;51.112;5.880;2022-07-17T10:12:44;27.14;34.81
65985;HTU21D;52748;51.112;5.880;2022-07-17T10:15:12;27.23;33.99
65985;HTU21D;52748;51.112;5.880;2022-07-17T10:17:38;27.26;34.62
65985;HTU21D;52748;51.112;5.880;2022-07-17T10:20:05;27.30;33.51
65985;HTU21D;52748;51.112;5.880;2022-07-17T10:22:45;27.26;32.83
65985;HTU21D;52748;51.112;5.880;2022-07-17T10:25:14;27.17;33.09
65985;HTU21D;52748;51.112;5.880;2022-07-17T10:27:55;26.89;33.56
65985;HTU21D;52748;51.112;5.880;2022-07-17T10:30:29;26.82;34.33
65985;HTU21D;52748;51.112;5.880;2022-07-17T10:33:00;26.62;34.46
65985;HTU21D;52748;51.112;5.880;2022-07-17T10:35:27;26.56;35.24
65985;HTU21D;52748;51.112;5.880;2022-07-17T10:37:58;26.78;35.21
65985;HTU21D;52748;51.112;5.880;2022-07-17T10:40:26;27.00;34.71
65985;HTU21D;52748;51.112;5.880;2022-07-17T10:42:59;27.11;34.46
65985;HTU21D;52748;51.112;5.880;2022-07-17T10:45:45;27.08;34.67
65985;HTU21D;52748;51.112;5.880;2022-07-17T10:48:16;27.19;35.02
65985;HTU21D;52748;51.112;5.880;2022-07-17T10:50:51;27.15;34.17
65985;HTU21D;52748;51.112;5.880;2022-07-17T10:53:18;27.09;34.31
65985;HTU21D;52748;51.112;5.880;2022-07-17T10:55:53;26.93;33.84
65985;HTU21D;52748;51.112;5.880;2022-07-17T10:58:27;26.83;32.21
65985;HTU21D;52748;51.112;5.880;2022-07-17T11:01:09;26.92;33.38
65985;HTU21D;52748;51.112;5.880;2022-07-17T11:08:36;26.92;31.12
65985;HTU21D;52748;51.112;5.880;2022-07-17T11:11:02;26.86;33.01
65985;HTU21D;52748;51.112;5.880;2022-07-17T11:13:28;26.82;31.80
65985;HTU21D;52748;51.112;5.880;2022-07-17T11:15:53;26.94;32.54
65985;HTU21D;52748;51.112;5.880;2022-07-17T11:18:20;27.02;31.64
65985;HTU21D;52748;51.112;5.880;2022-07-17T11:20:58;27.11;30.96
65985;HTU21D;52748;51.112;5.880;2022-07-17T11:23:30;27.23;31.46
65985;HTU21D;52748;51.112;5.880;2022-07-17T11:26:02;27.29;30.39
65985;HTU21D;52748;51.112;5.880;2022-07-17T11:28:40;27.34;29.02
65985;HTU21D;52748;51.112;5.880;2022-07-17T11:31:24;27.28;29.89
65985;HTU21D;52748;51.112;5.880;2022-07-17T11:33:54;27.32;30.00
65985;HTU21D;52748;51.112;5.880;2022-07-17T11:36:25;27.45;30.71
65985;HTU21D;52748;51.112;5.880;2022-07-17T11:38:54;27.47;31.42
65985;HTU21D;52748;51.112;5.880;2022-07-17T11:41:21;27.51;31.80
65985;HTU21D;52748;51.112;5.880;2022-07-17T11:43:47;27.42;32.48
65985;HTU21D;52748;51.112;5.880;2022-07-17T11:46:14;27.43;32.13
65985;HTU21D;52748;51.112;5.880;2022-07-17T11:48:43;27.54;31.86
65985;HTU21D;52748;51.112;5.880;2022-07-17T11:51:09;27.56;31.81
65985;HTU21D;52748;51.112;5.880;2022-07-17T11:53:37;27.63;31.62
65985;HTU21D;52748;51.112;5.880;2022-07-17T11:56:04;27.74;31.81
65985;HTU21D;52748;51.112;5.880;2022-07-17T11:58:43;27.82;29.68
65985;HTU21D;52748;51.112;5.880;2022-07-17T12:01:09;27.81;29.50
65985;HTU21D;52748;51.112;5.880;2022-07-17T12:03:35;27.80;29.84
65985;HTU21D;52748;51.112;5.880;2022-07-17T12:06:01;27.90;29.84
65985;HTU21D;52748;51.112;5.880;2022-07-17T12:08:27;27.99;29.55
65985;HTU21D;52748;51.112;5.880;2022-07-17T12:11:08;28.04;30.16
65985;HTU21D;52748;51.112;5.880;2022-07-17T12:13:40;28.04;29.72
65985;HTU21D;52748;51.112;5.880;2022-07-17T12:16:21;28.00;28.44
65985;HTU21D;52748;51.112;5.880;2022-07-17T12:19:05;27.98;28.23
65985;HTU21D;52748;51.112;5.880;2022-07-17T12:21:33;27.99;28.74
65985;HTU21D;52748;51.112;5.880;2022-07-17T12:24:04;27.85;30.06
65985;HTU21D;52748;51.112;5.880;2022-07-17T12:26:32;27.78;31.36
65985;HTU21D;52748;51.112;5.880;2022-07-17T12:28:59;27.93;31.34
65985;HTU21D;52748;51.112;5.880;2022-07-17T12:31:25;27.90;30.67
65985;HTU21D;52748;51.112;5.880;2022-07-17T12:33:53;27.81;31.12
65985;HTU21D;52748;51.112;5.880;2022-07-17T12:36:21;27.80;30.96
65985;HTU21D;52748;51.112;5.880;2022-07-17T12:38:47;27.67;31.12
65985;HTU21D;52748;51.112;5.880;2022-07-17T12:41:16;27.69;31.87
65985;HTU21D;52748;51.112;5.880;2022-07-17T12:43:43;27.83;32.50
65985;HTU21D;52748;51.112;5.880;2022-07-17T12:46:09;27.89;30.65
65985;HTU21D;52748;51.112;5.880;2022-07-17T12:48:35;27.87;30.85
65985;HTU21D;52748;51.112;5.880;2022-07-17T12:51:03;28.03;31.01
65985;HTU21D;52748;51.112;5.880;2022-07-17T12:53:29;28.13;29.68
65985;HTU21D;52748;51.112;5.880;2022-07-17T12:55:55;28.05;30.02
65985;HTU21D;52748;51.112;5.880;2022-07-17T12:58:21;28.11;30.22
65985;HTU21D;52748;51.112;5.880;2022-07-17T13:00:46;28.20;30.13
65985;HTU21D;52748;51.112;5.880;2022-07-17T13:03:12;28.16;30.80
65985;HTU21D;52748;51.112;5.880;2022-07-17T13:05:38;28.17;31.57
65985;HTU21D;52748;51.112;5.880;2022-07-17T13:08:04;28.19;29.58
65985;HTU21D;52748;51.112;5.880;2022-07-17T13:10:30;28.18;31.61
65985;HTU21D;52748;51.112;5.880;2022-07-17T13:12:56;28.12;31.01
65985;HTU21D;52748;51.112;5.880;2022-07-17T13:15:22;28.13;31.96
65985;HTU21D;52748;51.112;5.880;2022-07-17T13:17:48;28.17;31.13
65985;HTU21D;52748;51.112;5.880;2022-07-17T13:20:14;28.26;32.00
65985;HTU21D;52748;51.112;5.880;2022-07-17T13:22:40;28.33;31.37
65985;HTU21D;52748;51.112;5.880;2022-07-17T13:25:06;28.21;30.51
65985;HTU21D;52748;51.112;5.880;2022-07-17T13:27:31;28.21;30.85
65985;HTU21D;52748;51.112;5.880;2022-07-17T13:29:57;28.33;31.36
65985;HTU21D;52748;51.112;5.880;2022-07-17T13:32:23;28.47;31.18
65985;HTU21D;52748;51.112;5.880;2022-07-17T13:34:49;28.52;31.01
65985;HTU21D;52748;51.112;5.880;2022-07-17T13:37:16;28.54;30.71
65985;HTU21D;52748;51.112;5.880;2022-07-17T13:39:42;28.60;30.74
65985;HTU21D;52748;51.112;5.880;2022-07-17T13:42:08;28.52;30.16
65985;HTU21D;52748;51.112;5.880;2022-07-17T13:44:34;28.55;30.09
65985;HTU21D;52748;51.112;5.880;2022-07-17T13:46:59;28.61;29.94
65985;HTU21D;52748;51.112;5.880;2022-07-17T13:49:25;28.61;30.39
65985;HTU21D;52748;51.112;5.880;2022-07-17T13:51:51;28.65;30.22
65985;HTU21D;52748;51.112;5.880;2022-07-17T13:54:17;28.68;31.22
65985;HTU21D;52748;51.112;5.880;2022-07-17T13:56:43;28.74;31.16
65985;HTU21D;52748;51.112;5.880;2022-07-17T13:59:09;28.75;29.82
65985;HTU21D;52748;51.112;5.880;2022-07-17T14:01:34;28.69;30.55
65985;HTU21D;52748;51.112;5.880;2022-07-17T14:04:01;28.72;30.11
65985;HTU21D;52748;51.112;5.880;2022-07-17T14:06:27;28.78;29.95
65985;HTU21D;52748;51.112;5.880;2022-07-17T14:08:53;28.85;29.84
65985;HTU21D;52748;51.112;5.880;2022-07-17T14:11:19;28.94;29.16
65985;HTU21D;52748;51.112;5.880;2022-07-17T14:13:45;28.99;28.94
65985;HTU21D;52748;51.112;5.880;2022-07-17T14:16:10;29.02;28.85
65985;HTU21D;52748;51.112;5.880;2022-07-17T14:18:36;29.18;28.07
65985;HTU21D;52748;51.112;5.880;2022-07-17T14:21:22;29.35;28.14
65985;HTU21D;52748;51.112;5.880;2022-07-17T14:23:48;29.28;27.61
65985;HTU21D;52748;51.112;5.880;2022-07-17T14:26:14;29.27;28.43
65985;HTU21D;52748;51.112;5.880;2022-07-17T14:28:39;29.31;27.66
65985;HTU21D;52748;51.112;5.880;2022-07-17T14:31:05;29.35;27.60
65985;HTU21D;52748;51.112;5.880;2022-07-17T14:33:31;29.38;26.71
65985;HTU21D;52748;51.112;5.880;2022-07-17T14:35:57;29.41;27.31
65985;HTU21D;52748;51.112;5.880;2022-07-17T14:38:23;29.49;27.13
65985;HTU21D;52748;51.112;5.880;2022-07-17T14:40:48;29.51;27.50
65985;HTU21D;52748;51.112;5.880;2022-07-17T14:43:14;29.53;27.23
65985;HTU21D;52748;51.112;5.880;2022-07-17T14:45:40;29.45;26.57
65985;HTU21D;52748;51.112;5.880;2022-07-17T14:48:06;29.42;26.59
65985;HTU21D;52748;51.112;5.880;2022-07-17T14:50:31;29.44;26.65
65985;HTU21D;52748;51.112;5.880;2022-07-17T14:52:57;29.45;26.46
65985;HTU21D;52748;51.112;5.880;2022-07-17T14:55:23;29.37;25.16
65985;HTU21D;52748;51.112;5.880;2022-07-17T14:57:49;29.18;25.91
65985;HTU21D;52748;51.112;5.880;2022-07-17T15:00:14;29.16;26.21
65985;HTU21D;52748;51.112;5.880;2022-07-17T15:02:40;29.19;26.49
65985;HTU21D;52748;51.112;5.880;2022-07-17T15:05:07;29.19;26.45
65985;HTU21D;52748;51.112;5.880;2022-07-17T15:07:33;29.24;26.22
65985;HTU21D;52748;51.112;5.880;2022-07-17T15:09:59;29.26;26.17
65985;HTU21D;52748;51.112;5.880;2022-07-17T15:12:25;29.27;26.58
65985;HTU21D;52748;51.112;5.880;2022-07-17T15:14:51;29.35;26.04
65985;HTU21D;52748;51.112;5.880;2022-07-17T15:17:16;29.50;26.95
65985;HTU21D;52748;51.112;5.880;2022-07-17T15:19:43;29.68;25.14
65985;HTU21D;52748;51.112;5.880;2022-07-17T15:22:09;29.79;23.75
65985;HTU21D;52748;51.112;5.880;2022-07-17T15:24:35;29.93;24.53
65985;HTU21D;52748;51.112;5.880;2022-07-17T15:27:00;30.00;23.67